Terminal Aerodrome Forecast
Issued by NWS

Home | Current Version | Previous Version | Text Only | Print | Product List | Glossary On
Versions: 1 2 3 4 5 6 7 8 9 10 11 12 13 14 15 16 17 18 19 20 21 22 23 24 25 26
000
FTUS45 KGJT 041739
TAFRIL
TAF
KRIL 041739Z 0418/0518 01005KT P6SM SCT120
     FM041900 28008KT P6SM BKN120
     FM042100 24010KT P6SM VCTS SCT080CB BKN120
     FM050200 12010KT P6SM BKN100
     FM050600 18005KT P6SM BKN100=

USA.gov is the U.S. government's official web portal to all federal, state and local government web resources and services.